• Join FlightAware (Why Join?)
  • Login
  • US Flag 
08:26PM EDT


 

Airport Tracker/Info


-or-


 

Live Flight TrackerFlight Track Log ✈ DCM1032 ✈ 10-May-2012 ✈ KLUK - KCLT

Flight Track Log - Related Links

Times and Time Zones

All times are in EDT time to prevent confusion due to time zone crossing. See the DCM1032 flight status page for this flight to view local times or setup timezone preferences in your user account.

Time Position Orientation Groundspeed Altitude Reporting Facility
EDT Latitude Longitude Course Direction KTS MPH feet Rate Location/Type
04:48PM 39.1167 -84.4000 67° East 178 205 1,200  Level Cincinnati TRACON
04:49PM 39.1333 -84.3500 123° Southeast 200 230 2,800 1,620 Climbing Cincinnati TRACON
04:50PM 39.1000 -84.2833 123° Southeast 224 258 4,000 2,160 Climbing Cincinnati TRACON
04:51PM 39.0667 -84.2167 181° South 251 289 7,200 2,940 Climbing Cincinnati TRACON
04:51PM 39.0275 -84.2172 206° Southwest 305 351 8,800 2,820 Climbing Indianapolis Center
04:52PM 38.9481 -84.2672 223° Southwest 315 362 11,800 2,100 Climbing Indianapolis Center
04:53PM 38.8744 -84.3544 227° Southwest 348 400 13,100 1,920 Climbing Indianapolis Center
04:54PM 38.7967 -84.4603 212° Southwest 363 418 15,700 2,700 Climbing Indianapolis Center
04:55PM 38.7083 -84.5311 196° South 376 433 18,600 2,880 Climbing Indianapolis Center
04:56PM 38.6039 -84.5694 155° Southeast 455 524 21,500 2,520 Climbing Indianapolis Center
04:57PM 38.5000 -84.5069 137° Southeast 435 501 23,700 2,100 Climbing Indianapolis Center
04:58PM 38.4111 -84.4025 137° Southeast 425 489 25,700 1,800 Climbing Indianapolis Center
04:59PM 38.3181 -84.2928 137° Southeast 441 507 27,300 1,440 Climbing Indianapolis Center
05:00PM 38.2392 -84.1994 136° Southeast 463 533 28,600 1,500 Climbing Indianapolis Center
05:01PM 38.1211 -84.0558 137° Southeast 484 557 30,300 1,200 Climbing Indianapolis Center
05:02PM 38.0172 -83.9339 138° Southeast 495 570 31,100 360 Climbing Indianapolis Center
05:03PM 37.9111 -83.8125 137° Southeast 507 583 31,100  Level Indianapolis Center
05:04PM 37.8031 -83.6858 137° Southeast 521 600 31,100  Level Indianapolis Center
05:05PM 37.6944 -83.5597 137° Southeast 521 600 31,100  Level Indianapolis Center
05:06PM 37.5881 -83.4339 137° Southeast 516 594 31,100  Level Indianapolis Center
05:07PM 37.4794 -83.3083 138° Southeast 516 594 31,100  Level Indianapolis Center
05:08PM 37.3747 -83.1886 138° Southeast 511 588 31,100  Level Indianapolis Center
05:10PM 37.2111 -83.0017 137° Southeast 534 615 31,100 -180 Level Atlanta Center
05:11PM 37.1058 -82.8781 138° Southeast 521 600 30,700 -1,020 Descending Atlanta Center
05:12PM 37.0003 -82.7575 138° Southeast 521 600 29,100 -840 Descending Atlanta Center
05:13PM 36.8822 -82.6269 138° Southeast 521 600 29,100 -60 Level Atlanta Center
05:14PM 36.7744 -82.5072 138° Southeast 515 593 29,000 -600 Descending Atlanta Center
05:15PM 36.6686 -82.3875 139° Southeast 515 593 27,900 -1,200 Descending Atlanta Center
05:16PM 36.5669 -82.2758 138° Southeast 508 585 26,700 -1,200 Descending Atlanta Center
05:17PM 36.4717 -82.1694 146° Southeast 478 550 25,600 -1,200 Descending Atlanta Center
05:18PM 36.3658 -82.0817 152° Southeast 458 527 24,400 -1,320 Descending Atlanta Center
05:19PM 36.2583 -82.0122 152° Southeast 446 513 23,000 -1,380 Descending Atlanta Center
05:20PM 36.1656 -81.9503 152° Southeast 432 497 21,700 -1,500 Descending Atlanta Center
05:21PM 36.0603 -81.8811 152° Southeast 432 497 20,000 -1,800 Descending Atlanta Center
05:22PM 35.9506 -81.8097 153° Southeast 426 490 18,200 -1,860 Descending Atlanta Center
05:23PM 35.8514 -81.7483 152° Southeast 408 470 16,300 -2,040 Descending Atlanta Center
05:24PM 35.7689 -81.6944 151° Southeast 387 445 14,500 -1,980 Descending Atlanta Center
05:25PM 35.6781 -81.6331 148° Southeast 366 421 12,700 -1,200 Descending Atlanta Center
05:26PM 35.5933 -81.5692 129° Southeast 344 396 12,000 -360 Descending Atlanta Center
05:27PM 35.5439 -81.4942 123° Southeast 323 372 12,000 -600 Level Atlanta Center
05:28PM 35.4894 -81.3911 121° Southeast 324 373 10,800 -960 Descending Atlanta Center
05:29PM 35.4436 -81.2958 120° Southeast 319 367 10,000 -480 Descending Atlanta Center
05:30PM 35.4064 -81.2181 122° Southeast 313 360 10,000 -360 Level Atlanta Center
05:31PM 35.3603 -81.1281 123° Southeast 314 361 9,400 -540 Descending Atlanta Center
05:32PM 35.3144 -81.0406 139° Southeast 309 356 9,000 -240 Descending Atlanta Center
05:33PM 35.2567 -80.9789 139° Southeast 295 339 9,000 -240 Level Atlanta Center
05:34PM 35.1772 -80.8956 149° Southeast 300 345 8,500 -1,200 Descending Atlanta Center
05:35PM 35.1178 -80.8519 161° South 283 326 6,500 -2,460 Descending Atlanta Center
05:36PM 35.0503 -80.8242 178° South 262 302 4,100 -1,200 Descending Atlanta Center
05:37PM 34.9875 -80.8217 258° West 198 228 4,000 -60 Descending Atlanta Center
05:38PM 34.9783 -80.8725 321° Northwest 175 201 4,000  Level Atlanta Center
05:39PM 35.0150 -80.9092 347° North 180 207 4,000 -420 Level Atlanta Center
05:40PM 35.0694 -80.9250 354° North 183 211 3,200 -780 Descending Atlanta Center
05:41PM 35.1156 -80.9308 357° North 176 203 2,400 -900 Descending Atlanta Center
05:42PM 35.1617 -80.9342 195° South 169 194 1,500 -900 Descending Atlanta Center
05:49PM 35.0047 -80.9857 North  Level FlightAware Approximate
05:50PM 35.1063 -80.9654 North  Level FlightAware Approximate